Time,TemperatureF,DewpointF,PressureIn,WindDirection,WindDirectionDegrees,WindSpeedMPH,WindSpeedGustMPH,Humidity,HourlyPrecipIn,Conditions,Clouds,dailyrainin,SoftwareType,DateUTC
2013-03-16 00:02:00,68.0,17.0,29.96,North,0,0.0,0.0,14,-99.99,,,-99.99,,2013-03-16 06:02:00,
2013-03-16 00:12:00,68.0,17.0,29.96,North,0,0.0,0.0,14,-99.99,,,-99.99,,2013-03-16 06:12:00,
2013-03-16 00:22:00,68.0,17.0,29.96,North,0,0.0,0.0,14,-99.99,,,-99.99,,2013-03-16 06:22:00,
2013-03-16 00:32:00,67.0,18.0,29.95,SE,136,4.0,6.0,15,-99.99,,,-99.99,,2013-03-16 06:32:00,
2013-03-16 00:42:00,67.0,18.0,29.95,SE,136,4.0,6.0,15,-99.99,,,-99.99,,2013-03-16 06:42:00,
2013-03-16 00:52:00,66.0,17.0,29.95,SE,142,4.0,7.0,15,-99.99,,,-99.99,,2013-03-16 06:52:00,
2013-03-16 01:02:00,65.0,16.0,29.95,SSE,153,3.0,5.0,15,-99.99,,,-99.99,,2013-03-16 07:02:00,
2013-03-16 01:12:00,65.0,16.0,29.95,SSE,153,3.0,5.0,15,-99.99,,,-99.99,,2013-03-16 07:12:00,
2013-03-16 01:22:00,65.0,18.0,29.95,North,0,0.0,0.0,16,-99.99,,,-99.99,,2013-03-16 07:22:00,
2013-03-16 01:32:00,65.0,25.0,29.95,North,0,0.0,0.0,22,-99.99,,,-99.99,,2013-03-16 07:32:00,
2013-03-16 01:42:00,65.0,25.0,29.95,North,0,0.0,0.0,22,-99.99,,,-99.99,,2013-03-16 07:42:00,
2013-03-16 01:52:00,65.0,19.0,29.95,North,0,0.0,0.0,17,-99.99,,,-99.99,,2013-03-16 07:52:00,
2013-03-16 02:02:00,64.0,20.0,29.94,North,0,0.0,0.0,18,-99.99,,,-99.99,,2013-03-16 08:02:00,
2013-03-16 02:12:00,64.0,20.0,29.94,North,0,0.0,0.0,18,-99.99,,,-99.99,,2013-03-16 08:12:00,
2013-03-16 02:23:00,63.0,19.0,29.94,North,0,0.0,0.0,18,-99.99,,,-99.99,,2013-03-16 08:23:00,
2013-03-16 02:32:00,63.0,19.0,29.95,North,0,0.0,0.0,18,-99.99,,,-99.99,,2013-03-16 08:32:00,
2013-03-16 02:42:00,63.0,19.0,29.95,North,0,0.0,0.0,18,-99.99,,,-99.99,,2013-03-16 08:42:00,
2013-03-16 02:52:00,63.0,21.0,29.95,North,0,0.0,0.0,20,-99.99,,,-99.99,,2013-03-16 08:52:00,
2013-03-16 03:01:00,65.0,19.0,29.95,North,0,0.0,0.0,17,-99.99,,,-99.99,,2013-03-16 09:01:00,
2013-03-16 03:12:00,65.0,19.0,29.95,North,0,0.0,0.0,17,-99.99,,,-99.99,,2013-03-16 09:12:00,
2013-03-16 03:22:00,66.0,19.0,29.95,North,0,0.0,0.0,16,-99.99,,,-99.99,,2013-03-16 09:22:00,
2013-03-16 03:33:00,67.0,18.0,29.94,North,0,0.0,0.0,15,-99.99,,,-99.99,,2013-03-16 09:33:00,
2013-03-16 03:42:00,67.0,18.0,29.94,North,0,0.0,0.0,15,-99.99,,,-99.99,,2013-03-16 09:42:00,
2013-03-16 03:52:00,66.0,19.0,29.94,North,0,0.0,0.0,16,-99.99,,,-99.99,,2013-03-16 09:52:00,
2013-03-16 04:03:00,64.0,18.0,29.93,North,0,0.0,0.0,17,-99.99,,,-99.99,,2013-03-16 10:03:00,
2013-03-16 04:12:00,64.0,18.0,29.93,North,0,0.0,0.0,17,-99.99,,,-99.99,,2013-03-16 10:12:00,
2013-03-16 04:22:00,64.0,20.0,29.93,North,0,0.0,0.0,18,-99.99,,,-99.99,,2013-03-16 10:22:00,
2013-03-16 04:32:00,64.0,20.0,29.93,North,0,0.0,0.0,18,-99.99,,,-99.99,,2013-03-16 10:32:00,
2013-03-16 04:42:00,64.0,20.0,29.93,North,0,0.0,0.0,18,-99.99,,,-99.99,,2013-03-16 10:42:00,
2013-03-16 04:52:00,63.0,20.0,29.93,South,190,0.0,5.0,19,-99.99,,,-99.99,,2013-03-16 10:52:00,
2013-03-16 05:03:00,61.0,20.0,29.93,North,0,0.0,0.0,20,-99.99,,,-99.99,,2013-03-16 11:03:00,
2013-03-16 05:12:00,61.0,20.0,29.93,North,0,0.0,0.0,20,-99.99,,,-99.99,,2013-03-16 11:12:00,
2013-03-16 05:22:00,61.0,22.0,29.93,North,0,0.0,0.0,22,-99.99,,,-99.99,,2013-03-16 11:22:00,
2013-03-16 05:32:00,60.0,21.0,29.94,North,0,0.0,0.0,22,-99.99,,,-99.99,,2013-03-16 11:32:00,
2013-03-16 05:42:00,60.0,21.0,29.94,North,0,0.0,0.0,22,-99.99,,,-99.99,,2013-03-16 11:42:00,
2013-03-16 05:52:00,60.0,22.0,29.94,North,0,0.0,0.0,23,-99.99,,,-99.99,,2013-03-16 11:52:00,
2013-03-16 06:02:00,58.0,22.0,29.94,North,0,0.0,0.0,25,-99.99,,,-99.99,,2013-03-16 12:02:00,
2013-03-16 06:12:00,58.0,22.0,29.94,North,0,0.0,0.0,25,-99.99,,,-99.99,,2013-03-16 12:12:00,
2013-03-16 06:22:00,57.0,22.0,29.95,North,0,0.0,0.0,26,-99.99,,,-99.99,,2013-03-16 12:22:00,
2013-03-16 06:32:00,56.0,23.0,29.95,North,0,0.0,0.0,28,-99.99,,,-99.99,,2013-03-16 12:32:00,
2013-03-16 06:42:00,56.0,23.0,29.95,North,0,0.0,0.0,28,-99.99,,,-99.99,,2013-03-16 12:42:00,
2013-03-16 06:52:00,56.0,23.0,29.95,North,0,0.0,0.0,28,-99.99,,,-99.99,,2013-03-16 12:52:00,
2013-03-16 07:02:00,55.0,23.0,29.96,North,0,0.0,0.0,28,-99.99,,,-99.99,,2013-03-16 13:02:00,
2013-03-16 07:12:00,55.0,23.0,29.96,North,0,0.0,0.0,28,-99.99,,,-99.99,,2013-03-16 13:12:00,
2013-03-16 07:22:00,56.0,23.0,29.96,WNW,284,1.0,7.0,27,-99.99,,,-99.99,,2013-03-16 13:22:00,
2013-03-16 07:32:00,60.0,24.0,29.96,West,271,4.0,8.0,25,-99.99,,,-99.99,,2013-03-16 13:32:00,
2013-03-16 07:42:00,60.0,24.0,29.96,West,271,4.0,8.0,25,-99.99,,,-99.99,,2013-03-16 13:42:00,
2013-03-16 07:52:00,61.0,24.0,29.96,West,278,7.0,11.0,24,-99.99,,,-99.99,,2013-03-16 13:52:00,
2013-03-16 08:02:00,62.0,25.0,29.96,WSW,256,5.0,9.0,24,-99.99,,,-99.99,,2013-03-16 14:02:00,
2013-03-16 08:12:00,62.0,25.0,29.96,WSW,256,5.0,9.0,24,-99.99,,,-99.99,,2013-03-16 14:12:00,
2013-03-16 08:22:00,62.0,25.0,29.96,West,277,5.0,10.0,24,-99.99,,,-99.99,,2013-03-16 14:22:00,
2013-03-16 08:32:00,63.0,25.0,29.96,WSW,245,3.0,9.0,23,-99.99,,,-99.99,,2013-03-16 14:32:00,
2013-03-16 08:42:00,63.0,25.0,29.96,WSW,245,3.0,9.0,23,-99.99,,,-99.99,,2013-03-16 14:42:00,
2013-03-16 08:52:00,63.0,26.0,29.96,WSW,245,3.0,7.0,24,-99.99,,,-99.99,,2013-03-16 14:52:00,
2013-03-16 09:02:00,63.0,25.0,29.96,West,267,5.0,11.0,23,-99.99,,,-99.99,,2013-03-16 15:02:00,
2013-03-16 09:12:00,63.0,25.0,29.96,West,267,5.0,11.0,23,-99.99,,,-99.99,,2013-03-16 15:12:00,
2013-03-16 09:22:00,63.0,25.0,29.96,WSW,257,4.0,9.0,23,-99.99,,,-99.99,,2013-03-16 15:22:00,
2013-03-16 09:33:00,64.0,24.0,29.96,WSW,255,4.0,11.0,22,-99.99,,,-99.99,,2013-03-16 15:33:00,
2013-03-16 09:43:00,64.0,24.0,29.96,WSW,255,4.0,11.0,22,-99.99,,,-99.99,,2013-03-16 15:43:00,
2013-03-16 09:52:00,65.0,24.0,29.96,West,262,6.0,13.0,21,-99.99,,,-99.99,,2013-03-16 15:52:00,
2013-03-16 10:03:00,66.0,24.0,29.96,WSW,256,9.0,16.0,20,-99.99,,,-99.99,,2013-03-16 16:03:00,
2013-03-16 10:12:00,66.0,24.0,29.96,WSW,256,9.0,16.0,20,-99.99,,,-99.99,,2013-03-16 16:12:00,
2013-03-16 10:22:00,66.0,24.0,29.96,WSW,256,9.0,16.0,20,-99.99,,,-99.99,,2013-03-16 16:22:00,
2013-03-16 10:33:00,69.0,24.0,29.96,West,270,8.0,15.0,18,-99.99,,,-99.99,,2013-03-16 16:33:00,
2013-03-16 10:42:00,69.0,24.0,29.96,West,270,8.0,15.0,18,-99.99,,,-99.99,,2013-03-16 16:42:00,
2013-03-16 10:53:00,71.0,24.0,29.96,WSW,239,8.0,16.0,17,-99.99,,,-99.99,,2013-03-16 16:53:00,
2013-03-16 11:03:00,71.0,24.0,29.96,West,267,8.0,16.0,17,-99.99,,,-99.99,,2013-03-16 17:03:00,
2013-03-16 11:12:00,71.0,24.0,29.96,West,267,8.0,16.0,17,-99.99,,,-99.99,,2013-03-16 17:12:00,
2013-03-16 11:22:00,72.0,25.0,29.95,WSW,257,7.0,13.0,17,-99.99,,,-99.99,,2013-03-16 17:22:00,
2013-03-16 11:32:00,73.0,24.0,29.95,West,270,8.0,13.0,16,-99.99,,,-99.99,,2013-03-16 17:32:00,
2013-03-16 11:42:00,73.0,24.0,29.95,West,270,8.0,13.0,16,-99.99,,,-99.99,,2013-03-16 17:42:00,
2013-03-16 11:53:00,75.0,24.0,29.95,West,263,5.0,9.0,15,-99.99,,,-99.99,,2013-03-16 17:53:00,
2013-03-16 12:02:00,75.0,26.0,29.95,West,263,5.0,11.0,16,-99.99,,,-99.99,,2013-03-16 18:02:00,
2013-03-16 12:13:00,75.0,26.0,29.95,West,263,5.0,11.0,16,-99.99,,,-99.99,,2013-03-16 18:13:00,
2013-03-16 12:22:00,76.0,25.0,29.93,NW,304,5.0,13.0,15,-99.99,,,-99.99,,2013-03-16 18:22:00,
2013-03-16 12:32:00,76.0,25.0,29.93,North,0,0.0,0.0,15,-99.99,,,-99.99,,2013-03-16 18:32:00,
2013-03-16 12:42:00,76.0,25.0,29.93,North,0,0.0,0.0,15,-99.99,,,-99.99,,2013-03-16 18:42:00,
2013-03-16 12:53:00,77.0,24.0,29.91,SSE,165,2.0,8.0,14,-99.99,,,-99.99,,2013-03-16 18:53:00,
2013-03-16 13:02:00,79.0,24.0,29.90,SSW,211,4.0,15.0,13,-99.99,,,-99.99,,2013-03-16 19:02:00,
2013-03-16 13:12:00,79.0,24.0,29.90,SSW,211,4.0,15.0,13,-99.99,,,-99.99,,2013-03-16 19:12:00,
2013-03-16 13:22:00,81.0,19.0,29.89,West,259,9.0,16.0,10,-99.99,,,-99.99,,2013-03-16 19:22:00,
2013-03-16 13:32:00,80.0,19.0,29.88,West,269,10.0,19.0,10,-99.99,,,-99.99,,2013-03-16 19:32:00,
2013-03-16 13:42:00,80.0,19.0,29.88,West,269,10.0,19.0,10,-99.99,,,-99.99,,2013-03-16 19:42:00,
2013-03-16 13:53:00,80.0,21.0,29.86,West,264,9.0,18.0,11,-99.99,,,-99.99,,2013-03-16 19:53:00,
2013-03-16 14:02:00,81.0,22.0,29.85,WSW,256,8.0,16.0,11,-99.99,,,-99.99,,2013-03-16 20:02:00,
2013-03-16 14:12:00,81.0,22.0,29.85,WSW,256,8.0,16.0,11,-99.99,,,-99.99,,2013-03-16 20:12:00,
2013-03-16 14:22:00,81.0,19.0,29.84,South,190,10.0,24.0,10,-99.99,,,-99.99,,2013-03-16 20:22:00,
2013-03-16 14:32:00,81.0,19.0,29.83,West,280,10.0,20.0,10,-99.99,,,-99.99,,2013-03-16 20:32:00,
2013-03-16 14:42:00,81.0,19.0,29.83,West,280,10.0,20.0,10,-99.99,,,-99.99,,2013-03-16 20:42:00,
2013-03-16 14:52:00,82.0,22.0,29.83,WNW,288,8.0,17.0,11,-99.99,,,-99.99,,2013-03-16 20:52:00,
2013-03-16 15:02:00,82.0,20.0,29.82,SSW,212,9.0,20.0,10,-99.99,,,-99.99,,2013-03-16 21:02:00,
2013-03-16 15:12:00,82.0,20.0,29.82,SSW,212,9.0,20.0,10,-99.99,,,-99.99,,2013-03-16 21:12:00,
2013-03-16 15:22:00,82.0,20.0,29.80,SSW,212,9.0,23.0,10,-99.99,,,-99.99,,2013-03-16 21:22:00,
2013-03-16 15:32:00,83.0,21.0,29.80,West,277,9.0,18.0,10,-99.99,,,-99.99,,2013-03-16 21:32:00,
2013-03-16 15:43:00,83.0,21.0,29.80,West,277,9.0,18.0,10,-99.99,,,-99.99,,2013-03-16 21:43:00,
2013-03-16 15:53:00,84.0,19.0,29.79,WNW,300,10.0,22.0,9,-99.99,,,-99.99,,2013-03-16 21:53:00,
2013-03-16 16:03:00,84.0,19.0,29.78,West,269,6.0,14.0,9,-99.99,,,-99.99,,2013-03-16 22:03:00,
2013-03-16 16:12:00,84.0,19.0,29.78,West,269,6.0,14.0,9,-99.99,,,-99.99,,2013-03-16 22:12:00,
2013-03-16 16:22:00,84.0,13.0,29.77,West,277,9.0,13.0,7,-99.99,,,-99.99,,2013-03-16 22:22:00,
2013-03-16 16:33:00,84.0,13.0,29.76,WSW,243,11.0,22.0,7,-99.99,,,-99.99,,2013-03-16 22:33:00,
2013-03-16 16:42:00,84.0,13.0,29.76,WSW,243,11.0,22.0,7,-99.99,,,-99.99,,2013-03-16 22:42:00,
2013-03-16 16:52:00,85.0,11.0,29.75,West,277,9.0,15.0,6,-99.99,,,-99.99,,2013-03-16 22:52:00,
2013-03-16 17:02:00,84.0,10.0,29.75,West,280,9.0,15.0,6,-99.99,,,-99.99,,2013-03-16 23:02:00,
2013-03-16 17:12:00,84.0,10.0,29.75,West,280,9.0,15.0,6,-99.99,,,-99.99,,2013-03-16 23:12:00,
2013-03-16 17:22:00,84.0,10.0,29.75,West,277,12.0,24.0,6,-99.99,,,-99.99,,2013-03-16 23:22:00,
2013-03-16 17:32:00,84.0,10.0,29.74,West,276,10.0,17.0,6,-99.99,,,-99.99,,2013-03-16 23:32:00,
2013-03-16 17:42:00,84.0,10.0,29.74,West,276,10.0,17.0,6,-99.99,,,-99.99,,2013-03-16 23:42:00,
2013-03-16 17:52:00,83.0,9.0,29.74,West,262,10.0,25.0,6,-99.99,,,-99.99,,2013-03-16 23:52:00,
2013-03-16 18:01:00,83.0,13.0,29.74,WNW,300,8.0,21.0,7,-99.99,,,-99.99,,2013-03-17 00:01:00,
2013-03-16 18:12:00,83.0,13.0,29.74,WNW,300,8.0,21.0,7,-99.99,,,-99.99,,2013-03-17 00:12:00,
2013-03-16 18:22:00,82.0,12.0,29.74,WSW,255,10.0,23.0,7,-99.99,,,-99.99,,2013-03-17 00:22:00,
2013-03-16 18:32:00,81.0,11.0,29.74,WSW,250,10.0,22.0,7,-99.99,,,-99.99,,2013-03-17 00:32:00,
2013-03-16 18:42:00,81.0,11.0,29.74,WSW,250,10.0,22.0,7,-99.99,,,-99.99,,2013-03-17 00:42:00,
2013-03-16 18:52:00,81.0,11.0,29.75,West,260,10.0,25.0,7,-99.99,,,-99.99,,2013-03-17 00:52:00,
2013-03-16 19:02:00,80.0,13.0,29.75,WNW,290,6.0,12.0,8,-99.99,,,-99.99,,2013-03-17 01:02:00,
2013-03-16 19:12:00,80.0,13.0,29.75,WNW,290,6.0,12.0,8,-99.99,,,-99.99,,2013-03-17 01:12:00,
2013-03-16 19:22:00,79.0,13.0,29.76,WNW,294,8.0,15.0,8,-99.99,,,-99.99,,2013-03-17 01:22:00,
2013-03-16 19:32:00,79.0,15.0,29.76,West,277,7.0,15.0,9,-99.99,,,-99.99,,2013-03-17 01:32:00,
2013-03-16 19:42:00,79.0,15.0,29.76,West,277,7.0,15.0,9,-99.99,,,-99.99,,2013-03-17 01:42:00,
2013-03-16 19:53:00,78.0,17.0,29.77,WNW,284,6.0,15.0,10,-99.99,,,-99.99,,2013-03-17 01:53:00,
2013-03-16 20:02:00,78.0,17.0,29.77,WNW,288,7.0,14.0,10,-99.99,,,-99.99,,2013-03-17 02:02:00,
2013-03-16 20:12:00,78.0,17.0,29.77,WNW,288,7.0,14.0,10,-99.99,,,-99.99,,2013-03-17 02:12:00,
2013-03-16 20:22:00,77.0,18.0,29.78,NW,318,5.0,11.0,11,-99.99,,,-99.99,,2013-03-17 02:22:00,
2013-03-16 20:33:00,77.0,18.0,29.78,WNW,290,5.0,13.0,11,-99.99,,,-99.99,,2013-03-17 02:33:00,
2013-03-16 20:42:00,77.0,18.0,29.78,WNW,290,5.0,13.0,11,-99.99,,,-99.99,,2013-03-17 02:42:00,
2013-03-16 20:53:00,76.0,18.0,29.79,NW,304,2.0,10.0,11,-99.99,,,-99.99,,2013-03-17 02:53:00,
2013-03-16 21:02:00,76.0,20.0,29.79,West,280,6.0,10.0,12,-99.99,,,-99.99,,2013-03-17 03:02:00,
2013-03-16 21:12:00,76.0,20.0,29.79,West,280,6.0,10.0,12,-99.99,,,-99.99,,2013-03-17 03:12:00,
2013-03-16 21:22:00,76.0,20.0,29.79,WNW,287,4.0,9.0,12,-99.99,,,-99.99,,2013-03-17 03:22:00,
2013-03-16 21:33:00,76.0,20.0,29.80,West,276,1.0,6.0,12,-99.99,,,-99.99,,2013-03-17 03:33:00,
2013-03-16 21:43:00,76.0,20.0,29.80,West,276,1.0,6.0,12,-99.99,,,-99.99,,2013-03-17 03:43:00,
2013-03-16 21:53:00,75.0,21.0,29.80,North,0,0.0,0.0,13,-99.99,,,-99.99,,2013-03-17 03:53:00,
2013-03-16 22:03:00,75.0,19.0,29.81,WNW,283,5.0,11.0,12,-99.99,,,-99.99,,2013-03-17 04:03:00,
2013-03-16 22:12:00,75.0,19.0,29.81,WNW,283,5.0,11.0,12,-99.99,,,-99.99,,2013-03-17 04:12:00,
2013-03-16 22:23:00,74.0,20.0,29.82,North,0,0.0,0.0,13,-99.99,,,-99.99,,2013-03-17 04:23:00,
2013-03-16 22:32:00,74.0,20.0,29.82,West,278,2.0,7.0,13,-99.99,,,-99.99,,2013-03-17 04:32:00,
2013-03-16 22:42:00,74.0,20.0,29.82,West,278,2.0,7.0,13,-99.99,,,-99.99,,2013-03-17 04:42:00,
2013-03-16 22:53:00,73.0,21.0,29.82,WNW,291,2.0,7.0,14,-99.99,,,-99.99,,2013-03-17 04:53:00,
2013-03-16 23:02:00,72.0,23.0,29.83,North,0,0.0,0.0,16,-99.99,,,-99.99,,2013-03-17 05:02:00,
2013-03-16 23:12:00,72.0,23.0,29.83,North,0,0.0,0.0,16,-99.99,,,-99.99,,2013-03-17 05:12:00,
2013-03-16 23:22:00,70.0,23.0,29.83,North,0,0.0,0.0,17,-99.99,,,-99.99,,2013-03-17 05:22:00,
2013-03-16 23:32:00,70.0,23.0,29.83,North,0,0.0,0.0,17,-99.99,,,-99.99,,2013-03-17 05:32:00,
2013-03-16 23:42:00,70.0,23.0,29.83,North,0,0.0,0.0,17,-99.99,,,-99.99,,2013-03-17 05:42:00,
2013-03-16 23:52:00,69.0,22.0,29.84,North,0,0.0,0.0,17,-99.99,,,-99.99,,2013-03-17 05:52:00,